Time;durP1;ratioP1;P1;durP2;ratioP2;P2;SDS_P1;SDS_P2;PMS_P1;PMS_P2;Temp;Humidity;BMP_temperature;BMP_pressure;BME280_temperature;BME280_humidity;BME280_pressure;Samples;Min_cycle;Max_cycle;Signal;HPM_P1;HPM_P2
2023/04/09 00:02:04;;;;;;;;;18.00;17.00;;;;;4.76;100.00;99055.09;4788822;28;104114;-75
2023/04/09 00:04:45;;;;;;;;;19.00;18.75;;;;;4.71;100.00;99056.56;4805114;28;102350;-75
2023/04/09 00:07:38;;;;;;;;;32.75;28.00;;;;;4.51;100.00;99023.72;4790749;28;102446;-75
2023/04/09 00:10:23;;;;;;;;;26.00;21.00;;;;;4.57;100.00;99041.00;4784353;28;104219;-75
2023/04/09 00:13:12;;;;;;;;;23.00;21.75;;;;;4.55;100.00;99046.50;4777013;28;103618;-72
2023/04/09 00:16:09;;;;;;;;;36.75;26.25;;;;;4.53;100.00;99064.59;4781397;28;102665;-74
2023/04/09 00:18:52;;;;;;;;;36.50;27.00;;;;;4.40;100.00;99051.56;4774145;28;102258;-75
2023/04/09 00:21:28;;;;;;;;;36.00;28.50;;;;;4.29;100.00;99050.91;4777699;28;102518;-74
2023/04/09 00:24:10;;;;;;;;;37.00;29.00;;;;;4.20;100.00;99051.81;4777960;28;103845;-76
2023/04/09 00:26:50;;;;;;;;;44.75;37.00;;;;;4.17;100.00;99069.03;4777196;28;106312;-75
2023/04/09 00:29:33;;;;;;;;;32.50;29.00;;;;;4.12;100.00;99065.09;4778217;28;102472;-75
2023/04/09 00:32:16;;;;;;;;;28.00;23.00;;;;;4.12;100.00;99073.97;4776216;28;102967;-76
2023/04/09 00:34:51;;;;;;;;;22.50;20.25;;;;;4.11;100.00;99074.97;4772630;28;107625;-76
2023/04/09 00:37:28;;;;;;;;;19.00;16.25;;;;;4.00;100.00;99051.09;4776835;28;102459;-75
2023/04/09 00:40:11;;;;;;;;;25.75;18.75;;;;;4.09;100.00;99076.97;4773106;28;108531;-75
2023/04/09 00:43:02;;;;;;;;;13.25;11.50;;;;;3.90;100.00;99045.78;4775394;28;103207;-74
2023/04/09 00:45:42;;;;;;;;;13.75;13.75;;;;;4.04;100.00;99076.56;4780030;28;104832;-75
2023/04/09 00:48:28;;;;;;;;;15.75;14.25;;;;;3.93;100.00;99052.66;4779353;28;102942;-75
2023/04/09 00:51:05;;;;;;;;;14.75;12.50;;;;;3.86;100.00;99049.75;4781092;28;104754;-75
2023/04/09 00:53:44;;;;;;;;;15.25;13.50;;;;;3.90;100.00;99058.31;4802958;28;102075;-75
2023/04/09 00:56:26;;;;;;;;;15.25;14.00;;;;;3.64;100.00;99034.09;4801742;28;108575;-76
2023/04/09 00:58:55;;;;;;;;;13.00;12.00;;;;;3.83;100.00;99059.88;4809778;28;101961;-75
2023/04/09 01:01:24;;;;;;;;;17.25;15.25;;;;;3.82;100.00;99063.56;4797265;28;102746;-75
2023/04/09 01:03:59;;;;;;;;;14.75;11.75;;;;;3.75;100.00;99054.44;4800239;28;102284;-75
2023/04/09 01:06:54;;;;;;;;;12.75;12.50;;;;;3.77;100.00;99056.00;4807827;28;102668;-75
2023/04/09 01:09:48;;;;;;;;;13.50;12.75;;;;;3.77;100.00;99065.84;4784909;28;103030;-75
2023/04/09 01:12:44;;;;;;;;;12.00;10.25;;;;;3.76;100.00;99065.00;4769707;28;104692;-76
2023/04/09 01:15:35;;;;;;;;;8.00;7.50;;;;;3.71;100.00;99061.06;4776872;28;103059;-74
2023/04/09 01:18:44;;;;;;;;;10.75;10.25;;;;;3.71;100.00;99072.63;4786938;28;107821;-75
2023/04/09 01:21:36;;;;;;;;;21.00;15.75;;;;;3.68;100.00;99058.69;4784528;28;105688;-77
2023/04/09 01:24:38;;;;;;;;;22.25;20.75;;;;;3.69;100.00;99068.41;4794049;28;102905;-76
2023/04/09 01:27:19;;;;;;;;;37.00;34.75;;;;;3.47;100.00;99049.03;4787519;28;103018;-74
2023/04/09 01:30:07;;;;;;;;;35.50;28.25;;;;;3.60;100.00;99068.28;4790690;28;108097;-74
2023/04/09 01:32:51;;;;;;;;;43.00;36.67;;;;;3.41;100.00;99038.94;4788677;28;102353;-75
2023/04/09 01:35:47;;;;;;;;;57.33;40.33;;;;;3.57;100.00;99059.72;4790959;28;102020;-75
2023/04/09 01:38:32;;;;;;;;;46.75;36.25;;;;;3.59;100.00;99060.41;4778509;28;102436;-75
2023/04/09 01:41:18;;;;;;;;;35.50;30.50;;;;;3.56;100.00;99048.16;4777743;28;104232;-75
2023/04/09 01:44:03;;;;;;;;;27.75;24.25;;;;;3.54;100.00;99039.47;4776834;28;105146;-75
2023/04/09 01:46:50;;;;;;;;;21.75;18.50;;;;;3.73;100.00;99075.16;4780515;28;102646;-75
2023/04/09 01:49:22;;;;;;;;;13.25;12.00;;;;;3.72;100.00;99082.31;4798997;28;102773;-76
2023/04/09 01:52:11;;;;;;;;;44.50;37.75;;;;;3.56;100.00;99079.41;4803714;28;107690;-75
2023/04/09 01:54:43;;;;;;;;;31.25;26.50;;;;;3.56;100.00;99080.25;4800603;28;102225;-75
2023/04/09 01:57:14;;;;;;;;;28.00;24.50;;;;;3.33;100.00;99046.00;4800993;28;102024;-75
2023/04/09 01:59:54;;;;;;;;;26.25;23.75;;;;;3.60;100.00;99070.94;4795465;28;102318;-74
2023/04/09 02:03:09;;;;;;;;;24.00;20.50;;;;;3.56;100.00;99058.88;4803668;28;108231;-74
2023/04/09 02:05:59;;;;;;;;;20.00;16.25;;;;;3.68;100.00;99072.06;4796217;28;102398;-75
2023/04/09 02:08:39;;;;;;;;;18.75;16.50;;;;;3.59;100.00;99063.09;4795325;28;102025;-74
2023/04/09 02:11:17;;;;;;;;;16.75;15.75;;;;;3.64;100.00;99068.84;4802862;28;102208;-76
2023/04/09 02:13:56;;;;;;;;;19.00;16.25;;;;;3.58;100.00;99064.06;4797608;28;104532;-75
2023/04/09 02:16:35;;;;;;;;;26.75;17.75;;;;;3.45;100.00;99051.03;4792882;28;102797;-76
2023/04/09 02:19:17;;;;;;;;;13.75;10.50;;;;;3.53;100.00;99069.84;4796285;28;102366;-75
2023/04/09 02:21:53;;;;;;;;;29.75;25.75;;;;;3.45;100.00;99075.09;4810636;29;102396;-75
2023/04/09 02:24:36;;;;;;;;;38.67;35.00;;;;;3.38;100.00;99071.28;4785917;28;107133;-75
2023/04/09 02:27:06;;;;;;;;;32.75;27.00;;;;;3.41;100.00;99071.03;4800744;28;101971;-75
2023/04/09 02:29:34;;;;;;;;;32.00;24.25;;;;;3.35;100.00;99052.88;4795296;28;102220;-75
2023/04/09 02:32:15;;;;;;;;;32.00;27.25;;;;;3.51;100.00;99071.81;4808085;28;102943;-75
2023/04/09 02:35:05;;;;;;;;;21.00;17.00;;;;;3.54;100.00;99066.19;4805189;28;108151;-75
2023/04/09 02:37:40;;;;;;;;;18.25;15.50;;;;;3.55;100.00;99062.56;4798314;28;102108;-75
2023/04/09 02:40:20;;;;;;;;;24.50;20.50;;;;;3.57;100.00;99068.56;4804417;28;102522;-75
2023/04/09 02:43:09;;;;;;;;;21.75;19.25;;;;;3.49;100.00;99062.28;4795041;28;102667;-77
2023/04/09 02:45:51;;;;;;;;;22.25;17.25;;;;;3.64;100.00;99071.53;4784957;28;108443;-75
2023/04/09 02:48:28;;;;;;;;;14.25;12.00;;;;;3.66;100.00;99077.56;4810369;28;102044;-76
2023/04/09 02:51:13;;;;;;;;;22.50;14.50;;;;;3.56;100.00;99071.38;4800686;28;102122;-75
2023/04/09 02:54:09;;;;;;;;;19.00;15.00;;;;;3.65;100.00;99077.72;4801021;28;103177;-75
2023/04/09 02:56:52;;;;;;;;;14.25;14.00;;;;;3.67;100.00;99073.91;4800753;28;108087;-75
2023/04/09 02:59:31;;;;;;;;;18.25;15.50;;;;;3.66;100.00;99074.88;4800384;29;102049;-74
2023/04/09 03:02:03;;;;;;;;;20.00;16.50;;;;;3.62;100.00;99061.94;4803206;28;102891;-75
2023/04/09 03:04:34;;;;;;;;;32.50;28.00;;;;;3.65;100.00;99080.41;4801293;28;102513;-74
2023/04/09 03:07:06;;;;;;;;;22.00;21.50;;;;;3.59;100.00;99052.41;4784329;28;103176;-75
2023/04/09 03:09:42;;;;;;;;;30.00;24.75;;;;;3.70;100.00;99064.72;4797339;28;102414;-75
2023/04/09 03:12:23;;;;;;;;;23.00;20.25;;;;;3.75;100.00;99068.66;4803800;28;102056;-75
2023/04/09 03:15:03;;;;;;;;;24.75;21.75;;;;;3.77;100.00;99065.84;4812618;28;102405;-75
2023/04/09 03:17:47;;;;;;;;;18.00;15.25;;;;;3.81;100.00;99072.59;4795192;28;107745;-76
2023/04/09 03:20:31;;;;;;;;;33.50;31.00;;;;;3.38;100.00;99017.84;4804257;28;102141;-75
2023/04/09 03:23:20;;;;;;;;;54.25;37.75;;;;;3.64;100.00;99071.53;4795594;28;104360;-75
2023/04/09 03:26:12;;;;;;;;;35.75;29.25;;;;;3.65;100.00;99075.84;4793668;28;105724;-75
2023/04/09 03:28:44;;;;;;;;;31.75;26.25;;;;;3.31;100.00;99016.75;4779393;28;107716;-75
2023/04/09 03:31:37;;;;;;;;;23.75;21.00;;;;;3.73;100.00;99076.00;4787340;28;102696;-76
2023/04/09 03:34:19;;;;;;;;;23.00;20.00;;;;;3.75;100.00;99074.00;4809855;28;102501;-75
2023/04/09 03:36:57;;;;;;;;;29.25;23.75;;;;;3.66;100.00;99058.00;4801973;28;102450;-75
2023/04/09 03:39:40;;;;;;;;;34.50;31.50;;;;;3.55;100.00;99057.19;4796525;28;107926;-75
2023/04/09 03:42:18;;;;;;;;;40.75;33.00;;;;;3.41;100.00;99041.63;4805246;28;102619;-76
2023/04/09 03:45:04;;;;;;;;;51.00;42.00;;;;;3.33;100.00;99038.00;4800078;28;101987;-75
2023/04/09 03:47:43;;;;;;;;;48.33;39.00;;;;;3.47;100.00;99065.09;4795563;28;102096;-75
2023/04/09 03:50:30;;;;;;;;;31.00;25.25;;;;;3.36;100.00;99045.72;4782695;28;104411;-75
2023/04/09 03:53:15;;;;;;;;;26.00;20.25;;;;;3.57;100.00;99079.28;4791123;28;106428;-75
2023/04/09 03:55:54;;;;;;;;;30.00;23.00;;;;;3.57;100.00;99076.59;4793202;28;102256;-75
2023/04/09 03:58:38;;;;;;;;;22.00;18.75;;;;;3.47;100.00;99053.53;4803932;28;103960;-75
2023/04/09 04:01:20;;;;;;;;;19.75;16.25;;;;;3.67;100.00;99070.38;4797738;28;107586;-75
2023/04/09 04:03:56;;;;;;;;;23.00;16.75;;;;;3.66;100.00;99072.19;4799625;28;103662;-73
2023/04/09 04:06:34;;;;;;;;;51.67;38.00;;;;;3.55;100.00;99059.88;4803940;28;103622;-74
2023/04/09 04:09:11;;;;;;;;;47.33;39.33;;;;;3.41;100.00;99032.75;4790573;28;104281;-74
2023/04/09 04:11:50;;;;;;;;;39.00;32.25;;;;;3.75;100.00;99078.50;4783241;28;107485;-75
2023/04/09 04:14:39;;;;;;;;;31.75;27.50;;;;;3.76;100.00;99081.03;4799812;28;105041;-75
2023/04/09 04:17:18;;;;;;;;;26.50;21.75;;;;;3.69;100.00;99069.25;4797399;28;102635;-74
2023/04/09 04:20:08;;;;;;;;;27.00;25.25;;;;;3.77;100.00;99082.75;4801811;28;102009;-75
2023/04/09 04:22:56;;;;;;;;;20.25;15.25;;;;;3.71;100.00;99077.97;4800551;28;107718;-75
2023/04/09 04:25:42;;;;;;;;;26.50;23.00;;;;;3.75;100.00;99086.53;4816587;28;102247;-75
2023/04/09 04:28:21;;;;;;;;;24.00;20.00;;;;;3.66;100.00;99060.66;4803946;28;103800;-74
2023/04/09 04:30:57;;;;;;;;;21.00;17.25;;;;;3.68;100.00;99062.22;4795870;28;102522;-76
2023/04/09 04:33:28;;;;;;;;;17.50;13.50;;;;;3.90;100.00;99082.41;4795857;28;103361;-74
2023/04/09 04:36:09;;;;;;;;;17.50;16.50;;;;;3.88;100.00;99079.00;4803508;28;101999;-75
2023/04/09 04:38:54;;;;;;;;;17.75;14.25;;;;;4.02;100.00;99090.09;4799919;28;102209;-75
2023/04/09 04:41:26;;;;;;;;;15.75;15.25;;;;;4.08;100.00;99088.66;4798262;28;102190;-74
2023/04/09 04:44:01;;;;;;;;;16.25;12.00;;;;;4.05;100.00;99071.03;4812562;28;104024;-74
2023/04/09 04:46:34;;;;;;;;;15.75;12.00;;;;;4.17;100.00;99093.13;4792767;28;102424;-75
2023/04/09 04:49:07;;;;;;;;;13.00;12.50;;;;;4.21;100.00;99086.47;4784499;28;104526;-75
2023/04/09 04:51:42;;;;;;;;;13.00;11.25;;;;;4.15;100.00;99076.34;4804709;28;102540;-75
2023/04/09 04:54:21;;;;;;;;;12.75;12.00;;;;;4.17;100.00;99073.53;4798054;28;109095;-75
2023/04/09 04:57:06;;;;;;;;;7.25;6.00;;;;;4.30;100.00;99088.25;4797168;28;102238;-74
2023/04/09 04:59:58;;;;;;;;;15.50;11.00;;;;;4.41;100.00;99097.94;4802541;28;102121;-74
2023/04/09 05:02:40;;;;;;;;;12.75;8.00;;;;;4.35;100.00;99083.28;4794738;28;102364;-74
2023/04/09 05:05:22;;;;;;;;;17.50;14.50;;;;;4.41;100.00;99088.03;4792926;28;107486;-75
2023/04/09 05:07:58;;;;;;;;;12.00;11.00;;;;;4.58;100.00;99093.59;4791569;28;101967;-74
2023/04/09 05:10:37;;;;;;;;;12.00;10.25;;;;;4.41;100.00;99058.59;4803727;28;102099;-74
2023/04/09 05:13:23;;;;;;;;;10.75;10.50;;;;;4.74;100.00;99099.94;4794819;28;102419;-76
2023/04/09 05:15:56;;;;;;;;;12.25;12.00;;;;;4.82;100.00;99099.16;4797970;28;103074;-76
2023/04/09 05:18:30;;;;;;;;;7.00;7.00;;;;;4.73;100.00;99076.81;4797571;28;102418;-76
2023/04/09 05:21:07;;;;;;;;;16.50;13.75;;;;;4.85;100.00;99088.16;4794026;28;102482;-73
2023/04/09 05:23:35;;;;;;;;;13.00;9.25;;;;;4.95;100.00;99103.16;4811862;28;102412;-75
2023/04/09 05:26:12;;;;;;;;;20.50;13.00;;;;;4.89;100.00;99090.41;4797701;28;104222;-76
2023/04/09 05:28:48;;;;;;;;;22.25;20.25;;;;;4.98;100.00;99107.38;4800481;28;102212;-74
2023/04/09 05:31:26;;;;;;;;;16.75;10.25;;;;;4.92;100.00;99102.63;4803196;28;102070;-75
2023/04/09 05:34:09;;;;;;;;;36.00;30.50;;;;;4.82;100.00;99097.34;4816248;28;102204;-74
2023/04/09 05:36:38;;;;;;;;;28.25;27.75;;;;;4.77;100.00;99070.16;4801276;28;104151;-74
2023/04/09 05:39:12;;;;;;;;;27.50;25.50;;;;;4.98;100.00;99096.66;4803856;28;102287;-75
2023/04/09 05:42:01;;;;;;;;;16.75;12.25;;;;;5.05;100.00;99095.03;4779682;28;104588;-75
2023/04/09 05:44:44;;;;;;;;;27.25;17.75;;;;;5.17;100.00;99103.72;4796159;28;104496;-75
2023/04/09 05:47:15;;;;;;;;;14.75;12.75;;;;;5.29;100.00;99111.34;4800046;28;109168;-75
2023/04/09 05:49:51;;;;;;;;;13.00;11.25;;;;;5.37;100.00;99118.59;4782830;28;102785;-74
2023/04/09 05:52:20;;;;;;;;;18.50;17.00;;;;;5.43;100.00;99111.78;4798190;28;102040;-74
2023/04/09 05:54:59;;;;;;;;;29.50;22.75;;;;;5.50;100.00;99118.19;4816760;28;102487;-74
2023/04/09 05:57:44;;;;;;;;;27.25;25.00;;;;;5.58;100.00;99116.44;4802860;28;105553;-75
2023/04/09 06:00:36;;;;;;;;;20.00;16.25;;;;;5.61;100.00;99109.91;4803513;28;102063;-73
2023/04/09 06:03:13;;;;;;;;;20.75;17.50;;;;;5.73;100.00;99114.00;4802877;28;102319;-74
2023/04/09 06:06:01;;;;;;;;;27.75;24.75;;;;;5.78;100.00;99112.53;4787657;28;102367;-74
2023/04/09 06:08:34;;;;;;;;;26.75;24.50;;;;;5.93;100.00;99120.88;4789915;28;103050;-74
2023/04/09 06:11:20;;;;;;;;;12.75;8.00;;;;;5.77;100.00;99075.97;4818723;28;102630;-75
2023/04/09 06:13:58;;;;;;;;;13.50;13.00;;;;;6.14;100.00;99117.78;4794778;29;102537;-75
2023/04/09 06:16:38;;;;;;;;;16.00;13.00;;;;;6.21;100.00;99114.28;4801855;28;102065;-75
2023/04/09 06:19:19;;;;;;;;;9.00;9.00;;;;;6.26;100.00;99117.34;4799494;28;103074;-74
2023/04/09 06:22:00;;;;;;;;;24.00;16.50;;;;;6.37;100.00;99121.59;4795803;28;102810;-75
2023/04/09 06:24:51;;;;;;;;;24.50;22.00;;;;;6.34;99.21;99108.50;4800725;28;102111;-75
2023/04/09 06:27:35;;;;;;;;;25.00;23.25;;;;;6.52;99.16;99125.38;4781387;28;104403;-75
2023/04/09 06:30:17;;;;;;;;;25.50;23.00;;;;;6.51;97.52;99114.78;4779717;28;104726;-76
2023/04/09 06:32:58;;;;;;;;;25.75;23.25;;;;;6.59;95.46;99133.59;4795470;28;104909;-76
2023/04/09 06:35:40;;;;;;;;;27.25;24.75;;;;;6.68;96.42;99125.41;4778997;28;102328;-75
2023/04/09 06:38:20;;;;;;;;;17.25;14.25;;;;;6.74;96.20;99123.91;4780906;28;102336;-75
2023/04/09 06:40:59;;;;;;;;;21.00;15.75;;;;;6.89;95.90;99134.88;4775501;28;107562;-75
2023/04/09 06:43:58;;;;;;;;;19.75;15.50;;;;;6.81;94.82;99126.75;4782931;28;102958;-75
2023/04/09 06:46:35;;;;;;;;;14.25;13.25;;;;;6.96;94.01;99130.50;4779181;28;104506;-74
2023/04/09 06:49:11;;;;;;;;;11.50;10.75;;;;;7.07;94.50;99143.63;4792680;28;102798;-73
2023/04/09 06:52:03;;;;;;;;;10.25;8.50;;;;;7.16;93.84;99143.47;4799551;28;108995;-74
2023/04/09 06:54:48;;;;;;;;;13.00;12.00;;;;;7.21;92.92;99148.34;4799626;28;102780;-74
2023/04/09 06:57:26;;;;;;;;;8.50;6.50;;;;;7.20;92.57;99137.78;4790662;28;102466;-75
2023/04/09 07:00:02;;;;;;;;;8.75;8.75;;;;;7.27;92.29;99146.84;4796111;28;102359;-74
2023/04/09 07:02:45;;;;;;;;;8.50;8.00;;;;;7.30;92.39;99154.56;4804597;28;103340;-74
2023/04/09 07:05:21;;;;;;;;;7.00;7.00;;;;;7.29;92.12;99150.22;4792416;28;107629;-75
2023/04/09 07:08:00;;;;;;;;;12.25;10.75;;;;;7.26;91.87;99142.47;4798494;28;103570;-75
2023/04/09 07:10:28;;;;;;;;;14.75;13.00;;;;;7.33;90.15;99149.72;4806681;28;102112;-75
2023/04/09 07:13:00;;;;;;;;;14.50;12.25;;;;;7.11;91.20;99118.91;4817432;28;103054;-75
2023/04/09 07:15:43;;;;;;;;;9.25;7.75;;;;;7.27;91.33;99130.72;4788966;28;103012;-75
2023/04/09 07:18:29;;;;;;;;;11.00;9.75;;;;;7.48;90.96;99160.63;4793353;28;103993;-75
2023/04/09 07:21:01;;;;;;;;;8.00;8.00;;;;;7.50;90.90;99158.63;4808983;28;103734;-74
2023/04/09 07:23:36;;;;;;;;;10.00;9.25;;;;;7.45;90.71;99145.69;4794579;28;104445;-75
2023/04/09 07:26:16;;;;;;;;;9.00;8.25;;;;;7.55;90.41;99156.28;4794587;28;102371;-74
2023/04/09 07:29:02;;;;;;;;;13.00;13.00;;;;;7.59;90.42;99160.31;4791947;28;107262;-75
2023/04/09 07:31:48;;;;;;;;;7.25;6.50;;;;;7.60;90.24;99162.00;4796686;28;105081;-75
2023/04/09 07:34:33;;;;;;;;;8.00;7.75;;;;;7.53;89.61;99155.59;4803201;28;109034;-74
2023/04/09 07:37:07;;;;;;;;;11.25;10.50;;;;;7.51;90.26;99145.03;4791491;28;109057;-75
2023/04/09 07:39:45;;;;;;;;;21.75;16.75;;;;;7.28;88.97;99135.94;4789429;28;102515;-74
2023/04/09 07:42:16;;;;;;;;;26.50;22.50;;;;;7.33;90.60;99159.66;4793799;28;102479;-74
2023/04/09 07:44:43;;;;;;;;;20.25;15.75;;;;;7.31;91.13;99146.34;4800228;28;104088;-74
2023/04/09 07:47:20;;;;;;;;;21.50;17.25;;;;;7.31;91.06;99142.81;4794746;28;102370;-74
2023/04/09 07:49:48;;;;;;;;;20.50;15.25;;;;;7.30;91.26;99130.38;4822141;28;102909;-74
2023/04/09 07:52:18;;;;;;;;;32.00;25.25;;;;;7.31;90.85;99162.50;4797787;28;102769;-73
2023/04/09 07:54:58;;;;;;;;;33.50;31.75;;;;;7.37;92.68;99164.53;4799538;28;104396;-74
2023/04/09 07:57:50;;;;;;;;;35.50;32.00;;;;;7.23;91.05;99150.88;4807811;28;102382;-74
2023/04/09 08:00:33;;;;;;;;;54.75;42.25;;;;;7.19;93.92;99166.50;4792629;28;103562;-74
2023/04/09 08:03:12;;;;;;;;;54.50;43.00;;;;;7.31;94.65;99161.66;4800716;28;102207;-74
2023/04/09 08:06:04;;;;;;;;;54.00;41.25;;;;;7.48;93.79;99152.56;4800255;28;103369;-73
2023/04/09 08:08:40;;;;;;;;;38.75;34.75;;;;;7.58;93.65;99161.31;4794357;28;103044;-74
2023/04/09 08:11:21;;;;;;;;;19.75;15.00;;;;;7.54;93.07;99170.75;4800710;28;103124;-74
2023/04/09 08:13:52;;;;;;;;;60.25;47.00;;;;;7.30;94.09;99154.56;4799242;28;102110;-74
2023/04/09 08:16:29;;;;;;;;;32.25;25.25;;;;;7.47;94.33;99169.75;4791227;28;107711;-74
2023/04/09 08:19:19;;;;;;;;;61.75;49.50;;;;;7.32;95.58;99168.72;4791417;28;102127;-75
2023/04/09 08:22:02;;;;;;;;;67.00;51.00;;;;;7.13;95.40;99149.19;4797355;28;102333;-74
2023/04/09 08:24:42;;;;;;;;;75.00;57.33;;;;;7.01;96.57;99174.72;4793001;28;102684;-73
2023/04/09 08:27:20;;;;;;;;;71.33;53.33;;;;;7.12;96.30;99173.53;4793576;28;103759;-74
2023/04/09 08:29:56;;;;;;;;;60.25;49.50;;;;;7.29;95.66;99177.97;4796566;28;102435;-75
2023/04/09 08:32:37;;;;;;;;;63.00;48.50;;;;;7.21;95.01;99160.94;4794672;28;102507;-74
2023/04/09 08:35:13;;;;;;;;;69.33;54.33;;;;;7.20;96.06;99170.06;4797070;28;102050;-74
2023/04/09 08:37:50;;;;;;;;;75.67;53.33;;;;;7.17;95.12;99179.28;4793123;28;103411;-74
2023/04/09 08:40:25;;;;;;;;;78.33;59.67;;;;;7.03;96.42;99180.75;4791790;28;103078;-74
2023/04/09 08:43:09;;;;;;;;;71.33;53.00;;;;;7.13;97.32;99180.63;4789543;28;102382;-74
2023/04/09 08:46:15;;;;;;;;;77.00;58.33;;;;;6.79;97.77;99167.25;4788925;28;102447;-74
2023/04/09 08:48:58;;;;;;;;;73.00;53.67;;;;;6.89;97.42;99162.56;4789158;28;104416;-74
2023/04/09 08:51:47;;;;;;;;;77.00;58.67;;;;;6.94;97.88;99162.91;4797663;28;102234;-75
2023/04/09 08:54:30;;;;;;;;;78.33;58.67;;;;;6.87;97.81;99174.50;4794076;28;102121;-75
2023/04/09 08:57:16;;;;;;;;;76.67;56.00;;;;;6.95;98.05;99171.84;4795174;28;102058;-74
2023/04/09 08:59:53;;;;;;;;;68.67;54.00;;;;;6.98;98.61;99161.59;4796067;28;103395;-74
2023/04/09 09:02:33;;;;;;;;;65.00;47.50;;;;;7.11;98.62;99145.81;4796981;28;102401;-75
2023/04/09 09:05:39;;;;;;;;;71.50;53.50;;;;;7.33;97.72;99171.25;4803208;28;103176;-75
2023/04/09 09:08:25;;;;;;;;;72.00;54.00;;;;;7.31;98.66;99172.41;4817589;28;102174;-75
2023/04/09 09:10:59;;;;;;;;;62.25;49.25;;;;;7.51;97.19;99174.63;4796535;28;108005;-74
2023/04/09 09:13:39;;;;;;;;;63.75;46.25;;;;;7.56;96.48;99171.44;4795668;28;102542;-75
2023/04/09 09:16:22;;;;;;;;;68.25;52.25;;;;;7.71;96.61;99174.25;4801723;28;102367;-74
2023/04/09 09:19:07;;;;;;;;;58.00;43.75;;;;;7.99;94.85;99187.22;4798385;28;102816;-73
2023/04/09 09:21:45;;;;;;;;;68.33;52.67;;;;;7.85;94.30;99176.28;4788285;28;107655;-73
2023/04/09 09:24:33;;;;;;;;;70.67;54.33;;;;;7.81;95.47;99183.88;4792243;28;102384;-75
2023/04/09 09:27:35;;;;;;;;;68.00;50.00;;;;;7.80;93.86;99178.63;4788710;28;102019;-75
2023/04/09 09:30:09;;;;;;;;;55.75;41.75;;;;;7.93;93.85;99171.72;4814872;28;102200;-74
2023/04/09 09:33:11;;;;;;;;;57.50;46.50;;;;;7.87;93.37;99176.97;4797708;28;104700;-74
2023/04/09 09:36:01;;;;;;;;;64.00;49.75;;;;;7.66;94.50;99177.47;4794379;28;102346;-74
2023/04/09 09:39:04;;;;;;;;;58.50;45.00;;;;;7.82;93.78;99185.56;4804145;28;102437;-74
2023/04/09 09:41:47;;;;;;;;;60.75;49.25;;;;;7.88;93.62;99192.13;4798835;28;102265;-73
2023/04/09 09:44:32;;;;;;;;;58.00;45.75;;;;;7.96;93.13;99189.41;4792683;28;103170;-74
2023/04/09 09:47:20;;;;;;;;;59.25;44.50;;;;;7.99;92.86;99179.13;4790123;28;102452;-74
2023/04/09 09:50:12;;;;;;;;;58.00;46.00;;;;;8.13;92.80;99190.22;4794540;28;102184;-74
2023/04/09 09:53:08;;;;;;;;;57.75;45.25;;;;;8.16;91.00;99189.88;4795745;28;102413;-75
2023/04/09 09:55:50;;;;;;;;;59.50;43.25;;;;;8.30;90.78;99189.19;4792088;28;107623;-74
2023/04/09 09:58:31;;;;;;;;;40.75;35.00;;;;;8.49;89.11;99184.28;4806864;28;102309;-74
2023/04/09 10:01:21;;;;;;;;;66.75;50.25;;;;;8.20;90.94;99170.50;4802921;28;101993;-75
2023/04/09 10:04:17;;;;;;;;;58.50;44.50;;;;;8.36;90.32;99172.34;4784485;28;104624;-74
2023/04/09 10:07:04;;;;;;;;;57.00;43.25;;;;;8.57;89.56;99182.53;4778427;28;107730;-74
2023/04/09 10:09:47;;;;;;;;;72.50;53.00;;;;;8.45;89.56;99165.94;4796284;28;102622;-75
2023/04/09 10:12:29;;;;;;;;;72.25;55.00;;;;;8.32;89.76;99166.47;4774579;28;102434;-74
2023/04/09 10:15:04;;;;;;;;;64.00;47.25;;;;;8.48;90.05;99163.72;4776202;28;102073;-74
2023/04/09 10:17:42;;;;;;;;;68.50;51.25;;;;;8.32;88.46;99163.78;4775799;28;107987;-74
2023/04/09 10:20:39;;;;;;;;;68.00;50.00;;;;;8.36;91.35;99161.56;4775353;28;102667;-74
2023/04/09 10:23:27;;;;;;;;;75.50;55.00;;;;;8.35;89.92;99163.44;4768810;28;102589;-75
2023/04/09 10:26:03;;;;;;;;;68.75;54.25;;;;;8.31;89.50;99139.69;4774266;28;103658;-74
2023/04/09 10:28:38;;;;;;;;;65.00;47.75;;;;;8.59;89.07;99149.03;4773240;29;107764;-74
2023/04/09 10:31:17;;;;;;;;;68.00;53.00;;;;;8.74;87.67;99157.19;4770366;28;102425;-74
2023/04/09 10:34:04;;;;;;;;;57.75;46.00;;;;;9.05;87.52;99151.84;4774882;28;102285;-73
2023/04/09 10:36:43;;;;;;;;;57.75;45.00;;;;;9.45;85.82;99151.56;4773588;28;102423;-76
2023/04/09 10:39:15;;;;;;;;;53.00;40.75;;;;;9.74;85.41;99151.63;4778794;28;108442;-74
2023/04/09 10:41:58;;;;;;;;;51.75;41.25;;;;;9.93;84.25;99160.25;4780654;29;102191;-73
2023/04/09 10:44:40;;;;;;;;;59.50;46.00;;;;;9.70;84.33;99144.06;4779746;28;102345;-74
2023/04/09 10:47:38;;;;;;;;;64.75;49.00;;;;;9.88;83.51;99155.41;4779181;29;102391;-73
2023/04/09 10:50:31;;;;;;;;;58.25;44.75;;;;;10.11;82.88;99158.03;4777137;28;108576;-73
2023/04/09 10:53:35;;;;;;;;;61.50;49.00;;;;;9.75;81.33;99161.41;4774814;28;102189;-74
2023/04/09 10:56:25;;;;;;;;;70.25;54.75;;;;;9.77;83.83;99136.94;4777650;28;105032;-73
2023/04/09 10:59:12;;;;;;;;;71.50;55.25;;;;;10.01;82.89;99147.50;4790434;28;102440;-74
2023/04/09 11:02:05;;;;;;;;;70.75;52.75;;;;;10.17;80.49;99130.31;4785241;28;107507;-71
2023/04/09 11:05:19;;;;;;;;;63.25;50.25;;;;;10.43;79.25;99138.81;4817818;28;101652;-72
2023/04/09 11:08:15;;;;;;;;;56.25;43.75;;;;;10.94;76.25;99118.00;4820039;28;103222;-74
2023/04/09 11:11:00;;;;;;;;;64.25;49.25;;;;;11.10;78.12;99136.72;4811092;28;101878;-73
2023/04/09 11:13:43;;;;;;;;;57.50;44.75;;;;;11.16;76.57;99116.19;4810087;28;106828;-73
2023/04/09 11:16:16;;;;;;;;;62.25;47.50;;;;;10.91;76.45;99122.97;4802319;28;101869;-72
2023/04/09 11:18:56;;;;;;;;;54.75;43.50;;;;;10.94;77.68;99123.41;4818679;28;103004;-73
2023/04/09 11:21:36;;;;;;;;;70.25;52.25;;;;;10.58;74.72;99144.22;4816861;28;101647;-74
2023/04/09 11:24:12;;;;;;;;;57.50;46.25;;;;;10.20;77.47;99127.25;4817696;28;106825;-74
2023/04/09 11:26:50;;;;;;;;;50.25;39.75;;;;;10.24;76.44;99112.31;4816055;28;101938;-74
2023/04/09 11:30:05;;;;;;;;;54.25;42.50;;;;;10.48;76.10;99139.09;4807096;28;101752;-74
2023/04/09 11:32:51;;;;;;;;;47.75;36.50;;;;;10.94;75.89;99136.13;4826817;28;103126;-74
2023/04/09 11:35:21;;;;;;;;;51.00;40.00;;;;;10.40;72.11;99111.31;4839638;28;102349;-74
2023/04/09 11:37:51;;;;;;;;;36.75;31.75;;;;;10.77;73.63;99140.91;4829666;28;102759;-74
2023/04/09 11:40:25;;;;;;;;;45.75;35.00;;;;;10.85;74.99;99126.44;4833204;28;101950;-74
2023/04/09 11:42:54;;;;;;;;;58.75;44.50;;;;;10.98;75.44;99140.13;4837227;28;101727;-73
2023/04/09 11:45:26;;;;;;;;;48.25;37.50;;;;;11.33;71.79;99141.97;4817261;28;102302;-74
2023/04/09 11:47:55;;;;;;;;;49.25;35.50;;;;;11.53;71.08;99123.19;4820901;28;101793;-74
2023/04/09 11:50:24;;;;;;;;;48.50;39.50;;;;;11.41;72.53;99100.38;4824987;28;102640;-73
2023/04/09 11:52:51;;;;;;;;;43.75;37.00;;;;;11.42;70.50;99123.72;4832237;28;102066;-74
2023/04/09 11:55:26;;;;;;;;;36.75;33.75;;;;;11.09;71.63;99135.03;4823598;28;102892;-74
2023/04/09 11:57:59;;;;;;;;;32.00;28.75;;;;;11.43;71.50;99141.66;4832386;28;102122;-74
2023/04/09 12:00:27;;;;;;;;;41.50;34.50;;;;;11.13;69.66;99144.47;4831856;28;102068;-74
2023/04/09 12:03:01;;;;;;;;;28.25;22.00;;;;;11.43;68.88;99130.81;4825051;28;101889;-73
2023/04/09 12:05:31;;;;;;;;;29.75;28.25;;;;;11.36;67.94;99130.75;4831499;28;103571;-73
2023/04/09 12:08:06;;;;;;;;;28.25;24.00;;;;;11.29;69.84;99132.56;4829512;28;102666;-74
2023/04/09 12:10:35;;;;;;;;;33.25;31.25;;;;;10.96;70.51;99125.94;4813970;28;102676;-74
2023/04/09 12:13:08;;;;;;;;;26.75;24.75;;;;;11.18;70.36;99133.91;4817118;28;101790;-74
2023/04/09 12:15:37;;;;;;;;;24.25;21.50;;;;;11.26;68.52;99135.63;4814321;28;108059;-74
2023/04/09 12:18:07;;;;;;;;;28.00;26.00;;;;;11.38;69.48;99131.41;4815050;28;101621;-74